createdAt,value
2022-10-21T00:02:01.805Z,22.73
2022-10-21T00:04:28.797Z,23.87
2022-10-21T00:06:55.824Z,23.97
2022-10-21T00:09:22.856Z,17.47
2022-10-21T00:11:50.124Z,17.57
2022-10-21T00:14:17.106Z,21.53
2022-10-21T00:16:44.159Z,16.43
2022-10-21T00:19:11.174Z,17.27
2022-10-21T00:21:41.044Z,21.40
2022-10-21T00:24:08.262Z,22.63
2022-10-21T00:26:37.686Z,18.33
2022-10-21T00:29:05.693Z,17.63
2022-10-21T00:31:34.765Z,16.00
2022-10-21T00:34:01.777Z,20.77
2022-10-21T00:36:28.817Z,16.50
2022-10-21T00:38:57.075Z,21.83
2022-10-21T00:41:24.015Z,21.73
2022-10-21T00:44:01.482Z,18.33
2022-10-21T00:46:39.620Z,20.07
2022-10-21T00:49:34.686Z,15.70
2022-10-21T00:52:03.529Z,17.33
2022-10-21T00:54:31.677Z,17.77
2022-10-21T00:56:59.758Z,15.83
2022-10-21T00:59:34.004Z,20.10
2022-10-21T01:02:01.008Z,18.77
2022-10-21T01:04:28.004Z,17.63
2022-10-21T01:06:55.469Z,20.73
2022-10-21T01:09:23.047Z,20.17
2022-10-21T01:11:50.354Z,19.13
2022-10-21T01:14:28.799Z,22.17
2022-10-21T01:17:20.604Z,24.07
2022-10-21T01:20:11.927Z,31.93
2022-10-21T01:23:06.802Z,51.63
2022-10-21T01:25:33.865Z,47.03
2022-10-21T01:28:09.647Z,51.90
2022-10-21T01:30:42.597Z,52.33
2022-10-21T01:33:21.688Z,64.43
2022-10-21T01:35:56.884Z,74.63
2022-10-21T01:38:51.237Z,100.47
2022-10-21T01:41:39.388Z,56.67
2022-10-21T01:44:41.110Z,78.47
2022-10-21T01:47:22.444Z,75.73
2022-10-21T01:49:54.919Z,53.50
2022-10-21T01:52:22.318Z,54.00
2022-10-21T01:54:56.442Z,50.40
2022-10-21T01:57:27.668Z,64.17
2022-10-21T02:00:05.827Z,54.83
2022-10-21T02:02:37.877Z,53.03
2022-10-21T02:05:12.590Z,44.53
2022-10-21T02:07:39.516Z,59.03
2022-10-21T02:10:06.896Z,44.57
2022-10-21T02:12:36.350Z,48.57
2022-10-21T02:15:07.769Z,38.00
2022-10-21T02:17:38.057Z,29.23
2022-10-21T02:20:08.765Z,26.03
2022-10-21T02:22:38.804Z,26.80
2022-10-21T02:25:11.695Z,25.20
2022-10-21T02:27:38.797Z,28.57
2022-10-21T02:30:06.449Z,29.77
2022-10-21T02:32:48.529Z,28.60
2022-10-21T02:35:48.094Z,28.63
2022-10-21T02:38:31.884Z,25.37
2022-10-21T02:41:03.944Z,29.40
2022-10-21T02:43:41.160Z,29.77
2022-10-21T02:46:10.751Z,28.67
2022-10-21T02:48:40.236Z,24.67
2022-10-21T02:51:08.094Z,24.73
2022-10-21T02:53:35.986Z,25.10
2022-10-21T02:56:03.372Z,32.27
2022-10-21T02:58:30.766Z,27.43
2022-10-21T03:00:57.922Z,28.47
2022-10-21T03:03:25.192Z,26.33
2022-10-21T03:05:52.316Z,25.77
2022-10-21T03:08:19.309Z,22.17
2022-10-21T03:10:52.959Z,27.47
2022-10-21T03:13:21.486Z,25.63
2022-10-21T03:15:50.098Z,31.53
2022-10-21T03:18:17.724Z,27.47
2022-10-21T03:20:44.900Z,27.43
2022-10-21T03:23:11.864Z,28.27
2022-10-21T03:25:38.821Z,31.07
2022-10-21T03:28:06.056Z,27.57
2022-10-21T03:30:33.086Z,23.90
2022-10-21T03:33:00.126Z,26.13
2022-10-21T03:35:27.904Z,26.10
2022-10-21T03:37:55.006Z,26.20
2022-10-21T03:40:23.833Z,31.30
2022-10-21T03:42:51.040Z,29.67
2022-10-21T03:45:18.060Z,28.90
2022-10-21T03:47:46.673Z,29.60
2022-10-21T03:50:16.436Z,29.33
2022-10-21T03:52:48.121Z,29.43
2022-10-21T03:55:15.030Z,30.97
2022-10-21T03:57:42.362Z,27.73
2022-10-21T04:00:10.246Z,29.60
2022-10-21T04:02:40.704Z,35.07
2022-10-21T04:05:08.623Z,31.03
2022-10-21T04:07:35.614Z,33.30
2022-10-21T04:10:02.602Z,31.10
2022-10-21T04:12:29.602Z,33.83
2022-10-21T04:14:56.544Z,30.07
2022-10-21T04:17:23.556Z,28.90
2022-10-21T04:19:50.585Z,32.90
2022-10-21T04:22:17.615Z,32.03
2022-10-21T04:24:44.605Z,40.20
2022-10-21T04:27:11.982Z,30.73
2022-10-21T04:29:38.954Z,41.03
2022-10-21T04:32:05.993Z,32.97
2022-10-21T04:34:32.932Z,37.40
2022-10-21T04:37:02.636Z,37.07
2022-10-21T04:39:32.213Z,38.10
2022-10-21T04:41:59.197Z,42.00
2022-10-21T04:44:26.199Z,39.03
2022-10-21T04:46:53.164Z,42.10
2022-10-21T04:49:20.152Z,37.70
2022-10-21T04:51:47.305Z,41.33
2022-10-21T04:54:14.287Z,40.03
2022-10-21T04:56:42.173Z,40.57
2022-10-21T04:59:09.789Z,42.87
2022-10-21T05:01:36.852Z,41.40
2022-10-21T05:04:03.885Z,41.57
2022-10-21T05:06:30.927Z,41.67
2022-10-21T05:08:58.021Z,39.37
2022-10-21T05:11:25.044Z,43.10
2022-10-21T05:13:52.084Z,45.63
2022-10-21T05:16:19.024Z,41.30
2022-10-21T05:18:46.018Z,38.77
2022-10-21T05:21:13.089Z,42.57
2022-10-21T05:23:40.053Z,43.43
2022-10-21T05:26:07.148Z,43.03
2022-10-21T05:28:34.282Z,42.93
2022-10-21T05:31:01.239Z,45.90
2022-10-21T05:33:28.654Z,41.13
2022-10-21T05:36:01.818Z,41.80
2022-10-21T05:38:29.660Z,43.17
2022-10-21T05:40:57.313Z,38.93
2022-10-21T05:43:24.937Z,42.23
2022-10-21T05:45:51.986Z,40.90
2022-10-21T05:48:19.266Z,44.43
2022-10-21T05:50:47.514Z,40.80
2022-10-21T05:53:14.838Z,44.40
2022-10-21T05:55:41.815Z,42.30
2022-10-21T05:58:09.077Z,39.53
2022-10-21T06:00:36.254Z,41.17
2022-10-21T06:03:03.347Z,43.23
2022-10-21T06:05:30.344Z,45.07
2022-10-21T06:07:57.284Z,43.50
2022-10-21T06:10:28.262Z,40.80
2022-10-21T06:12:56.430Z,44.03
2022-10-21T06:15:23.417Z,45.17
2022-10-21T06:17:51.989Z,38.20
2022-10-21T06:20:19.185Z,44.80
2022-10-21T06:22:46.217Z,44.47
2022-10-21T06:25:13.308Z,43.30
2022-10-21T06:27:40.825Z,42.27
2022-10-21T06:30:08.896Z,52.43
2022-10-21T06:32:35.959Z,53.33
2022-10-21T06:35:03.175Z,50.57
2022-10-21T06:37:30.174Z,55.77
2022-10-21T06:39:57.224Z,52.70
2022-10-21T06:42:24.210Z,60.90
2022-10-21T06:44:52.738Z,47.23
2022-10-21T06:47:21.452Z,67.90
2022-10-21T06:49:48.432Z,66.70
2022-10-21T06:52:15.610Z,64.33
2022-10-21T06:54:42.574Z,63.37
2022-10-21T06:57:09.564Z,70.20
2022-10-21T06:59:36.512Z,76.87
2022-10-21T07:02:03.478Z,71.23
2022-10-21T07:04:30.495Z,90.03
2022-10-21T07:06:57.698Z,76.17
2022-10-21T07:09:24.723Z,86.67
2022-10-21T07:11:51.773Z,91.30
2022-10-21T07:14:18.726Z,79.73
2022-10-21T07:16:45.844Z,80.83
2022-10-21T07:19:12.774Z,95.83
2022-10-21T07:21:39.752Z,87.20
2022-10-21T07:24:06.771Z,100.47
2022-10-21T07:26:35.047Z,102.10
2022-10-21T07:29:02.468Z,90.23
2022-10-21T07:31:36.034Z,91.37
2022-10-21T07:36:40.650Z,87.37
2022-10-21T07:39:12.787Z,72.80
2022-10-21T07:41:48.862Z,82.37
2022-10-21T07:44:16.460Z,68.80
2022-10-21T07:46:44.355Z,83.50
2022-10-21T07:49:13.153Z,141.30
2022-10-21T07:51:40.724Z,148.43
2022-10-21T07:54:07.889Z,147.17
2022-10-21T07:56:38.974Z,154.13
2022-10-21T07:59:11.653Z,147.13
2022-10-21T08:01:44.602Z,148.57
2022-10-21T08:04:14.277Z,139.83
2022-10-21T08:06:41.927Z,148.60
2022-10-21T08:09:08.975Z,148.40
2022-10-21T08:11:35.989Z,135.07
2022-10-21T08:14:07.560Z,140.60
2022-10-21T08:16:34.912Z,118.30
2022-10-21T08:19:02.729Z,107.53
2022-10-21T08:21:31.272Z,133.20
2022-10-21T08:23:59.437Z,116.97
2022-10-21T08:26:26.516Z,116.93
2022-10-21T08:28:53.619Z,120.77
2022-10-21T08:31:22.578Z,109.57
2022-10-21T08:33:50.021Z,102.13
2022-10-21T08:36:23.012Z,108.47
2022-10-21T08:38:50.269Z,113.53
2022-10-21T08:41:29.027Z,111.93
2022-10-21T08:44:02.357Z,111.27
2022-10-21T08:46:47.264Z,107.37
2022-10-21T08:49:29.868Z,110.77
2022-10-21T08:52:04.927Z,108.10
2022-10-21T08:54:47.730Z,121.50
2022-10-21T08:57:15.227Z,93.17
2022-10-21T08:59:42.844Z,83.87
2022-10-21T09:02:12.859Z,75.53
2022-10-21T09:05:01.695Z,90.60
2022-10-21T09:07:42.157Z,95.40
2022-10-21T09:10:33.392Z,91.80
2022-10-21T09:13:12.559Z,88.93
2022-10-21T09:16:03.533Z,91.87
2022-10-21T09:18:54.407Z,104.47
2022-10-21T09:21:49.475Z,102.47
2022-10-21T09:24:27.884Z,64.37
2022-10-21T09:26:56.160Z,49.33
2022-10-21T09:29:31.910Z,51.03
2022-10-21T09:32:19.811Z,46.27
2022-10-21T09:34:49.874Z,43.13
2022-10-21T09:37:35.423Z,53.73
2022-10-21T09:40:19.547Z,44.13
2022-10-21T09:42:50.705Z,41.97
2022-10-21T09:45:21.033Z,41.60
2022-10-21T09:47:54.097Z,45.60
2022-10-21T09:50:21.353Z,54.00
2022-10-21T09:52:57.503Z,61.37
2022-10-21T09:55:26.022Z,54.53
2022-10-21T09:57:59.182Z,57.20
2022-10-21T10:00:50.153Z,51.87
2022-10-21T10:03:34.389Z,55.50
2022-10-21T10:06:02.650Z,54.80
2022-10-21T10:08:43.568Z,57.13
2022-10-21T10:11:10.546Z,48.07
2022-10-21T10:13:43.818Z,50.43
2022-10-21T10:16:16.852Z,48.43
2022-10-21T10:18:44.745Z,48.73
2022-10-21T10:21:11.706Z,45.53
2022-10-21T10:23:53.562Z,50.30
2022-10-21T10:26:33.062Z,54.30
2022-10-21T10:29:27.959Z,47.03
2022-10-21T10:32:00.759Z,54.83
2022-10-21T10:34:35.360Z,53.03
2022-10-21T10:37:07.162Z,50.10
2022-10-21T10:39:37.651Z,48.10
2022-10-21T10:42:05.074Z,45.83
2022-10-21T10:44:41.376Z,44.90
2022-10-21T10:47:23.523Z,44.93
2022-10-21T10:49:51.692Z,51.63
2022-10-21T10:52:26.970Z,47.57
2022-10-21T10:55:17.171Z,51.57
2022-10-21T10:58:09.399Z,47.97
2022-10-21T11:00:42.685Z,49.80
2022-10-21T11:03:25.177Z,44.17
2022-10-21T11:05:57.854Z,43.47
2022-10-21T11:08:34.223Z,46.37
2022-10-21T11:11:05.869Z,45.10
2022-10-21T11:13:41.227Z,43.13
2022-10-21T11:16:44.888Z,46.63
2022-10-21T11:20:01.907Z,48.67
2022-10-21T11:22:41.444Z,49.57
2022-10-21T11:25:43.456Z,52.47
2022-10-21T11:28:20.373Z,59.17
2022-10-21T11:31:17.422Z,55.23
2022-10-21T11:33:47.404Z,52.43
2022-10-21T11:36:23.689Z,49.87
2022-10-21T11:39:38.622Z,51.03
2022-10-21T11:42:17.429Z,53.57
2022-10-21T11:45:03.149Z,46.00
2022-10-21T11:47:36.187Z,46.20
2022-10-21T11:50:32.466Z,51.57
2022-10-21T11:53:30.245Z,44.23
2022-10-21T11:56:15.179Z,48.53
2022-10-21T11:59:04.375Z,47.37
2022-10-21T12:01:47.103Z,54.77
2022-10-21T12:04:49.359Z,50.40
2022-10-21T12:07:45.223Z,53.23
2022-10-21T12:10:39.475Z,53.47
2022-10-21T12:13:20.052Z,51.30
2022-10-21T12:15:51.917Z,53.43
2022-10-21T12:18:22.965Z,50.70
2022-10-21T12:20:53.635Z,53.27
2022-10-21T12:23:24.572Z,53.87
2022-10-21T12:26:03.439Z,52.60
2022-10-21T12:28:45.914Z,54.63
2022-10-21T12:31:35.981Z,50.20
2022-10-21T12:34:03.800Z,53.47
2022-10-21T12:36:40.817Z,53.20
2022-10-21T12:39:35.549Z,55.70
2022-10-21T12:42:28.681Z,60.27
2022-10-21T12:44:55.859Z,59.30
2022-10-21T12:47:34.759Z,54.77
2022-10-21T12:50:29.641Z,52.90
2022-10-21T12:53:15.248Z,56.60
2022-10-21T12:55:50.094Z,54.63
2022-10-21T12:58:43.987Z,57.83
2022-10-21T13:01:33.493Z,61.53
2022-10-21T13:04:00.787Z,57.20
2022-10-21T13:06:56.684Z,56.50
2022-10-21T13:09:56.693Z,56.03
2022-10-21T13:12:23.789Z,56.90
2022-10-21T13:14:59.118Z,62.73
2022-10-21T13:17:32.929Z,57.13
2022-10-21T13:20:15.342Z,54.37
2022-10-21T13:22:44.789Z,58.90
2022-10-21T13:25:25.862Z,54.47
2022-10-21T13:28:02.998Z,58.37
2022-10-21T13:30:35.753Z,56.03
2022-10-21T13:33:15.505Z,54.10
2022-10-21T13:35:47.804Z,52.03
2022-10-21T13:38:23.646Z,61.30
2022-10-21T13:40:57.044Z,56.47
2022-10-21T13:43:48.936Z,58.73
2022-10-21T13:46:24.001Z,55.43
2022-10-21T13:48:50.986Z,59.03
2022-10-21T13:51:25.235Z,59.50
2022-10-21T13:54:10.773Z,61.77
2022-10-21T13:56:38.830Z,58.43
2022-10-21T13:59:07.662Z,55.27
2022-10-21T14:01:46.402Z,62.23
2022-10-21T14:04:21.930Z,57.93
2022-10-21T14:06:58.032Z,57.67
2022-10-21T14:09:32.052Z,58.80
2022-10-21T14:12:02.709Z,60.43
2022-10-21T14:14:32.064Z,62.23
2022-10-21T14:17:15.601Z,59.40
2022-10-21T14:19:47.709Z,60.57
2022-10-21T14:22:20.059Z,63.07
2022-10-21T14:24:49.864Z,62.50
2022-10-21T14:27:26.937Z,59.13
2022-10-21T14:29:55.499Z,66.30
2022-10-21T14:32:25.612Z,65.47
2022-10-21T14:35:01.126Z,62.37
2022-10-21T14:37:35.684Z,57.67
2022-10-21T14:40:31.866Z,57.97
2022-10-21T14:43:08.700Z,57.77
2022-10-21T14:45:43.797Z,60.83
2022-10-21T14:48:21.239Z,55.00
2022-10-21T14:51:01.637Z,56.77
2022-10-21T14:53:33.944Z,62.57
2022-10-21T14:56:04.409Z,61.97
2022-10-21T14:58:38.328Z,63.23
2022-10-21T15:01:12.619Z,61.30
2022-10-21T15:03:43.995Z,59.90
2022-10-21T15:06:15.738Z,60.23
2022-10-21T15:09:06.397Z,55.97
2022-10-21T15:11:39.817Z,62.53
2022-10-21T15:14:06.777Z,59.53
2022-10-21T15:19:10.208Z,56.27
2022-10-21T15:21:46.412Z,56.37
2022-10-21T15:24:28.340Z,61.20
2022-10-21T15:26:59.533Z,56.63
2022-10-21T15:29:28.459Z,63.80
2022-10-21T15:31:58.829Z,61.63
2022-10-21T15:34:25.882Z,56.07
2022-10-21T15:36:52.873Z,58.77
2022-10-21T15:39:20.045Z,61.93
2022-10-21T15:41:50.107Z,62.80
2022-10-21T15:44:26.757Z,60.47
2022-10-21T15:47:01.111Z,64.10
2022-10-21T15:49:41.377Z,60.17
2022-10-21T15:52:09.197Z,55.43
2022-10-21T15:54:36.787Z,56.40
2022-10-21T15:57:19.427Z,60.77
2022-10-21T15:59:47.564Z,57.70
2022-10-21T16:02:17.128Z,61.43
2022-10-21T16:04:44.998Z,70.60
2022-10-21T16:07:22.721Z,61.87
2022-10-21T16:09:49.832Z,60.87
2022-10-21T16:12:19.532Z,64.20
2022-10-21T16:14:46.577Z,61.83
2022-10-21T16:17:14.477Z,65.77
2022-10-21T16:19:42.575Z,69.77
2022-10-21T16:22:22.800Z,64.57
2022-10-21T16:24:49.742Z,64.03
2022-10-21T16:27:30.950Z,68.07
2022-10-21T16:30:15.855Z,62.00
2022-10-21T16:32:42.872Z,66.43
2022-10-21T16:35:11.051Z,68.70
2022-10-21T16:37:38.923Z,64.53
2022-10-21T16:40:20.942Z,66.00
2022-10-21T16:42:49.282Z,59.53
2022-10-21T16:45:17.032Z,61.03
2022-10-21T16:47:48.450Z,65.63
2022-10-21T16:50:22.646Z,59.73
2022-10-21T16:52:50.050Z,61.17
2022-10-21T16:55:18.853Z,58.63
2022-10-21T16:57:45.877Z,65.03
2022-10-21T17:00:14.094Z,64.50
2022-10-21T17:02:42.859Z,62.07
2022-10-21T17:05:13.407Z,64.60
2022-10-21T17:07:41.019Z,63.67
2022-10-21T17:10:08.996Z,65.67
2022-10-21T17:12:36.119Z,65.50
2022-10-21T17:15:03.832Z,59.77
2022-10-21T17:17:31.268Z,63.77
2022-10-21T17:19:58.261Z,63.87
2022-10-21T17:22:25.415Z,70.97
2022-10-21T17:24:52.376Z,69.30
2022-10-21T17:27:19.782Z,64.60
2022-10-21T17:29:46.966Z,74.97
2022-10-21T17:32:13.970Z,69.87
2022-10-21T17:34:41.369Z,69.53
2022-10-21T17:37:10.506Z,61.83
2022-10-21T17:39:37.757Z,55.20
2022-10-21T17:42:04.846Z,58.27
2022-10-21T17:44:31.990Z,62.00
2022-10-21T17:46:58.904Z,57.63
2022-10-21T17:49:26.977Z,58.43
2022-10-21T17:51:54.337Z,58.80
2022-10-21T17:54:24.645Z,56.80
2022-10-21T17:56:56.742Z,55.03
2022-10-21T17:59:24.550Z,62.30
2022-10-21T18:01:51.544Z,58.30
2022-10-21T18:04:18.705Z,54.73
2022-10-21T18:06:45.731Z,53.70
2022-10-21T18:09:12.840Z,55.60
2022-10-21T18:11:39.949Z,49.87
2022-10-21T18:14:06.917Z,48.87
2022-10-21T18:16:34.923Z,42.73
2022-10-21T18:19:03.081Z,42.10
2022-10-21T18:21:30.991Z,45.37
2022-10-21T18:23:58.027Z,41.93
2022-10-21T18:26:30.632Z,32.40
2022-10-21T18:29:03.440Z,38.60
2022-10-21T18:31:35.456Z,34.90
2022-10-21T18:34:04.999Z,36.90
2022-10-21T18:36:32.602Z,33.10
2022-10-21T18:39:00.326Z,36.63
2022-10-21T18:41:27.618Z,32.57
2022-10-21T18:43:57.468Z,34.33
2022-10-21T18:46:24.671Z,31.83
2022-10-21T18:48:51.717Z,29.80
2022-10-21T18:51:20.805Z,30.13
2022-10-21T18:53:49.955Z,31.57
2022-10-21T18:56:21.368Z,29.07
2022-10-21T18:58:48.675Z,35.27
2022-10-21T19:01:16.389Z,26.07
2022-10-21T19:03:43.629Z,29.13
2022-10-21T19:06:32.005Z,23.97
2022-10-21T19:09:03.411Z,23.00
2022-10-21T19:11:30.520Z,26.53
2022-10-21T19:13:57.678Z,25.40
2022-10-21T19:16:24.728Z,26.53
2022-10-21T19:18:51.931Z,27.23
2022-10-21T19:21:20.356Z,24.63
2022-10-21T19:23:47.627Z,25.20
2022-10-21T19:26:16.867Z,27.80
2022-10-21T19:28:44.956Z,21.90
2022-10-21T19:31:11.991Z,27.50
2022-10-21T19:33:39.955Z,24.77
2022-10-21T19:36:07.875Z,18.17
2022-10-21T19:38:50.803Z,27.47
2022-10-21T19:41:22.057Z,20.27
2022-10-21T19:43:53.132Z,16.87
2022-10-21T19:46:25.510Z,20.03
2022-10-21T19:48:53.525Z,23.33
2022-10-21T19:51:23.116Z,18.97
2022-10-21T19:53:51.206Z,18.73
2022-10-21T19:56:23.747Z,20.30
2022-10-21T19:58:54.478Z,23.57
2022-10-21T20:01:24.761Z,22.10
2022-10-21T20:03:53.521Z,23.83
2022-10-21T20:06:29.880Z,16.07
2022-10-21T20:08:59.137Z,16.10
2022-10-21T20:11:27.132Z,19.03
2022-10-21T20:13:54.785Z,19.93
2022-10-21T20:16:30.409Z,16.97
2022-10-21T20:18:57.813Z,20.53
2022-10-21T20:21:25.415Z,24.40
2022-10-21T20:23:52.367Z,17.80
2022-10-21T20:26:19.776Z,17.53
2022-10-21T20:28:46.955Z,16.27
2022-10-21T20:31:16.307Z,18.37
2022-10-21T20:33:48.930Z,16.30
2022-10-21T20:36:18.602Z,17.53
2022-10-21T20:38:46.367Z,16.57
2022-10-21T20:41:15.987Z,15.73
2022-10-21T20:43:43.762Z,17.00
2022-10-21T20:46:13.198Z,16.57
2022-10-21T20:48:45.394Z,18.20
2022-10-21T20:51:18.059Z,15.67
2022-10-21T20:53:50.704Z,16.20
2022-10-21T20:56:18.053Z,16.43
2022-10-21T20:58:45.392Z,17.73
2022-10-21T21:01:14.507Z,16.47
2022-10-21T21:03:42.957Z,18.07
2022-10-21T21:06:11.799Z,16.47
2022-10-21T21:08:48.612Z,15.57
2022-10-21T21:11:21.054Z,15.43
2022-10-21T21:13:48.547Z,14.57
2022-10-21T21:16:21.459Z,14.60
2022-10-21T21:18:59.744Z,16.40
2022-10-21T21:21:27.992Z,17.30
2022-10-21T21:23:56.152Z,19.27
2022-10-21T21:26:25.560Z,15.53
2022-10-21T21:28:53.479Z,15.20
2022-10-21T21:31:22.622Z,16.50
2022-10-21T21:33:49.983Z,14.47
2022-10-21T21:36:19.487Z,17.17
2022-10-21T21:38:46.514Z,13.90
2022-10-21T21:41:15.180Z,15.67
2022-10-21T21:43:43.725Z,13.53
2022-10-21T21:46:10.763Z,18.37
2022-10-21T21:48:37.780Z,15.87
2022-10-21T21:51:09.660Z,13.20
2022-10-21T21:53:37.886Z,19.10
2022-10-21T21:56:07.477Z,13.73
2022-10-21T21:58:34.733Z,13.60
2022-10-21T22:01:15.110Z,13.93
2022-10-21T22:03:42.928Z,17.80
2022-10-21T22:06:10.564Z,15.30
2022-10-21T22:08:39.978Z,15.60
2022-10-21T22:11:13.109Z,15.97
2022-10-21T22:13:40.436Z,11.80
2022-10-21T22:16:13.320Z,11.30
2022-10-21T22:18:40.400Z,11.97
2022-10-21T22:21:10.549Z,12.27
2022-10-21T22:23:38.635Z,12.33
2022-10-21T22:26:06.603Z,11.57
2022-10-21T22:28:33.624Z,10.93
2022-10-21T22:31:03.302Z,9.97
2022-10-21T22:33:30.943Z,15.13
2022-10-21T22:35:58.057Z,9.40
2022-10-21T22:38:25.004Z,9.80
2022-10-21T22:41:00.280Z,8.23
2022-10-21T22:43:27.993Z,12.90
2022-10-21T22:46:01.297Z,11.90
2022-10-21T22:48:42.444Z,13.73
2022-10-21T22:51:09.383Z,8.97
2022-10-21T22:53:36.864Z,9.00
2022-10-21T22:56:04.362Z,14.10
2022-10-21T22:58:31.331Z,8.23
2022-10-21T23:00:58.868Z,8.37
2022-10-21T23:03:25.892Z,8.43
2022-10-21T23:05:53.063Z,12.07
2022-10-21T23:08:20.063Z,8.63
2022-10-21T23:10:50.105Z,9.87
2022-10-21T23:13:17.657Z,12.40
2022-10-21T23:15:45.309Z,7.40
2022-10-21T23:18:12.307Z,7.80
2022-10-21T23:20:39.472Z,9.67
2022-10-21T23:23:06.753Z,7.77
2022-10-21T23:25:33.760Z,9.27
2022-10-21T23:28:00.982Z,14.07
2022-10-21T23:30:27.987Z,9.37
2022-10-21T23:32:55.035Z,8.10
2022-10-21T23:35:22.071Z,12.40
2022-10-21T23:37:49.087Z,9.83
2022-10-21T23:40:16.045Z,9.90
2022-10-21T23:42:43.197Z,6.50
2022-10-21T23:45:11.476Z,8.60
2022-10-21T23:47:40.025Z,11.10
2022-10-21T23:50:08.512Z,6.47
2022-10-21T23:52:36.352Z,9.10
2022-10-21T23:55:04.944Z,11.73
2022-10-21T23:57:32.282Z,8.33
2022-10-21T23:59:59.279Z,10.00
